Time;durP1;ratioP1;P1;durP2;ratioP2;P2;SDS_P1;SDS_P2;PMS_P1;PMS_P2;Temp;Humidity;BMP_temperature;BMP_pressure;BME280_temperature;BME280_humidity;BME280_pressure;Samples;Min_cycle;Max_cycle;Signal;HPM_P1;HPM_P2
2021/09/10 00:02:18;;;;;;;21.77;14.00;;;;;;;22.11;60.10;100200.48;1735120;81;21105;-68
2021/09/10 00:04:44;;;;;;;17.70;14.07;;;;;;;22.11;60.45;100200.48;1711589;82;21195;-69
2021/09/10 00:07:12;;;;;;;19.25;13.98;;;;;;;22.12;60.62;100204.84;1721821;82;21017;-68
2021/09/10 00:09:38;;;;;;;17.12;13.65;;;;;;;22.11;59.41;100196.42;1726651;82;21026;-69
2021/09/10 00:12:06;;;;;;;16.80;14.13;;;;;;;22.12;60.24;100196.73;1728658;81;21470;-69
2021/09/10 00:14:34;;;;;;;18.25;14.90;;;;;;;22.12;60.60;100199.44;1719259;82;21061;-67
2021/09/10 00:17:02;;;;;;;15.78;14.13;;;;;;;22.11;60.44;100192.90;1709682;82;21140;-68
2021/09/10 00:19:28;;;;;;;16.10;13.38;;;;;;;22.10;58.89;100195.33;1724209;81;21105;-68
2021/09/10 00:21:54;;;;;;;15.68;13.98;;;;;;;22.10;59.37;100201.55;1712236;82;21053;-68
2021/09/10 00:24:21;;;;;;;16.32;14.63;;;;;;;22.09;58.96;100195.83;1713093;82;21057;-68
2021/09/10 00:26:47;;;;;;;15.13;13.62;;;;;;;22.09;59.50;100189.60;1737132;82;21628;-68
2021/09/10 00:29:14;;;;;;;15.70;13.18;;;;;;;22.10;58.81;100198.03;1736299;82;21143;-68
2021/09/10 00:31:40;;;;;;;15.55;13.35;;;;;;;22.08;59.17;100200.11;1746261;81;21058;-68
2021/09/10 00:34:08;;;;;;;15.45;12.85;;;;;;;22.07;58.40;100195.23;1717900;83;21063;-68
2021/09/10 00:36:36;;;;;;;14.25;12.70;;;;;;;22.08;57.77;100194.70;1751709;80;21062;-68
2021/09/10 00:39:03;;;;;;;15.70;13.32;;;;;;;22.08;57.39;100194.70;1752849;80;21104;-67
2021/09/10 00:41:29;;;;;;;16.27;12.70;;;;;;;22.08;57.31;100198.77;1761025;80;21957;-68
2021/09/10 00:43:56;;;;;;;13.55;12.25;;;;;;;22.07;56.59;100197.13;1761684;80;21539;-68
2021/09/10 00:46:25;;;;;;;16.93;12.75;;;;;;;22.08;56.56;100196.06;1767963;80;21486;-68
2021/09/10 00:48:51;;;;;;;15.28;13.68;;;;;;;22.07;56.62;100196.59;1772323;80;21042;-69
2021/09/10 00:51:19;;;;;;;15.80;13.55;;;;;;;22.07;56.78;100191.19;1764698;80;21014;-69
2021/09/10 00:53:45;;;;;;;17.85;12.93;;;;;;;22.08;56.45;100190.14;1751958;80;22196;-68
2021/09/10 00:56:12;;;;;;;14.53;12.95;;;;;;;22.08;56.17;100190.14;1766729;80;21058;-69
2021/09/10 00:58:38;;;;;;;15.43;12.15;;;;;;;22.08;55.86;100191.49;1764280;80;21063;-69
2021/09/10 01:01:05;;;;;;;14.28;12.68;;;;;;;22.09;56.41;100196.37;1762789;80;21057;-69
2021/09/10 01:03:32;;;;;;;14.18;12.25;;;;;;;22.08;56.07;100199.61;1774180;80;21534;-69
2021/09/10 01:06:00;;;;;;;14.70;12.68;;;;;;;22.08;55.55;100196.91;1760265;80;21094;-67
2021/09/10 01:08:29;;;;;;;14.70;12.60;;;;;;;22.09;55.07;100201.24;1770509;80;21074;-67
2021/09/10 01:10:55;;;;;;;12.25;10.93;;;;;;;22.10;54.76;100204.80;1768388;80;21069;-68
2021/09/10 01:13:23;;;;;;;14.75;12.53;;;;;;;22.10;54.97;100200.73;1763617;80;21102;-69
2021/09/10 01:15:50;;;;;;;13.22;11.88;;;;;;;22.10;54.80;100201.55;1759532;80;21062;-69
2021/09/10 01:18:16;;;;;;;15.23;11.73;;;;;;;22.09;55.18;100206.66;1745675;80;21087;-69
2021/09/10 01:20:42;;;;;;;13.85;11.28;;;;;;;22.09;54.45;100201.24;1742069;80;21612;-69
2021/09/10 01:23:09;;;;;;;12.00;10.72;;;;;;;22.09;54.29;100197.72;1751056;80;21183;-69
2021/09/10 01:25:35;;;;;;;12.50;11.22;;;;;;;22.09;54.71;100201.24;1755563;80;21101;-69
2021/09/10 01:28:03;;;;;;;13.93;12.43;;;;;;;22.09;54.29;100201.78;1761609;80;20991;-68
2021/09/10 01:30:32;;;;;;;13.10;11.57;;;;;;;22.09;54.58;100203.13;1763767;80;21150;-68
2021/09/10 01:33:02;;;;;;;13.75;11.08;;;;;;;22.07;54.41;100203.36;1758715;80;21086;-68
2021/09/10 01:35:28;;;;;;;13.40;11.75;;;;;;;22.09;54.14;100201.78;1752423;80;21057;-69
2021/09/10 01:37:55;;;;;;;18.80;11.50;;;;;;;22.09;53.70;100203.13;1779175;80;21029;-68
2021/09/10 01:40:22;;;;;;;11.65;10.43;;;;;;;22.08;53.78;100199.61;1776185;80;21049;-69
2021/09/10 01:42:48;;;;;;;16.10;10.88;;;;;;;22.08;53.28;100194.70;1766961;79;21064;-68
2021/09/10 01:45:15;;;;;;;13.40;10.58;;;;;;;22.08;53.00;100202.31;1779435;79;21108;-70
2021/09/10 01:47:41;;;;;;;14.65;10.85;;;;;;;22.08;53.43;100200.96;1715914;82;21095;-68
2021/09/10 01:50:12;;;;;;;13.48;10.48;;;;;;;22.08;53.38;100202.31;1723196;80;21090;-68
2021/09/10 01:52:39;;;;;;;12.35;10.85;;;;;;;22.08;53.65;100195.55;1780090;80;21077;-69
2021/09/10 01:55:08;;;;;;;14.23;10.93;;;;;;;22.08;53.44;100198.25;1766545;80;21238;-68
2021/09/10 01:57:35;;;;;;;15.40;10.85;;;;;;;22.10;53.20;100195.33;1779618;80;20995;-68
2021/09/10 02:00:03;;;;;;;12.18;10.48;;;;;;;22.09;52.75;100193.13;1780559;79;21093;-69
2021/09/10 02:02:32;;;;;;;12.23;10.88;;;;;;;22.10;52.58;100196.67;1756180;80;21077;-69
2021/09/10 02:04:58;;;;;;;11.70;10.53;;;;;;;22.10;52.50;100190.73;1719210;82;21530;-69
2021/09/10 02:07:26;;;;;;;14.30;9.88;;;;;;;22.11;52.44;100191.01;1775760;80;21038;-70
2021/09/10 02:09:52;;;;;;;11.43;10.23;;;;;;;22.12;52.37;100189.15;1767510;80;21026;-70
2021/09/10 02:12:19;;;;;;;12.82;10.55;;;;;;;22.11;52.21;100188.30;1722329;82;21105;-68
2021/09/10 02:14:47;;;;;;;11.40;10.03;;;;;;;22.13;52.58;100192.13;1760607;80;21078;-69
2021/09/10 02:17:14;;;;;;;12.03;9.95;;;;;;;22.13;52.20;100189.43;1770747;79;21023;-69
2021/09/10 02:19:40;;;;;;;12.05;10.20;;;;;;;22.12;52.11;100187.27;1771555;79;21764;-68
2021/09/10 02:22:08;;;;;;;10.65;9.55;;;;;;;22.12;52.11;100191.31;1757497;80;21540;-69
2021/09/10 02:24:36;;;;;;;12.33;10.55;;;;;;;22.13;52.06;100196.19;1751348;80;21015;-69
2021/09/10 02:27:03;;;;;;;11.90;8.93;;;;;;;22.12;51.59;100198.08;1718542;82;21097;-69
2021/09/10 02:29:31;;;;;;;11.20;10.03;;;;;;;22.13;51.65;100195.66;1763469;80;21065;-68
2021/09/10 02:31:57;;;;;;;12.35;10.05;;;;;;;22.12;51.55;100191.31;1723157;82;21932;-68
2021/09/10 02:34:23;;;;;;;10.82;8.80;;;;;;;22.13;51.42;100196.19;1777868;79;21669;-69
2021/09/10 02:36:52;;;;;;;12.10;9.20;;;;;;;22.13;51.30;100194.84;1770944;79;21082;-70
2021/09/10 02:39:19;;;;;;;12.10;10.40;;;;;;;22.13;51.41;100192.95;1761382;80;21119;-69
2021/09/10 02:41:45;;;;;;;11.22;9.50;;;;;;;22.13;51.53;100194.84;1767750;80;21139;-69
2021/09/10 02:44:12;;;;;;;12.93;9.75;;;;;;;22.14;51.35;100193.80;1762065;80;21078;-69
2021/09/10 02:46:38;;;;;;;11.43;10.13;;;;;;;22.14;51.27;100198.67;1765263;80;20995;-68
2021/09/10 02:49:06;;;;;;;11.83;10.63;;;;;;;22.14;51.22;100187.84;1724825;82;21089;-69
2021/09/10 02:51:32;;;;;;;11.45;10.28;;;;;;;22.14;51.26;100190.55;1762108;79;20980;-69
2021/09/10 02:54:00;;;;;;;13.25;10.08;;;;;;;22.15;51.43;100189.48;1724207;82;21046;-70
2021/09/10 02:56:27;;;;;;;10.68;9.58;;;;;;;22.15;51.29;100192.19;1764640;79;22252;-69
2021/09/10 02:58:54;;;;;;;12.65;10.03;;;;;;;22.15;51.19;100183.25;1764274;80;21069;-70
2021/09/10 03:01:21;;;;;;;12.15;9.28;;;;;;;22.15;51.44;100188.12;1782323;80;21037;-68
2021/09/10 03:03:48;;;;;;;11.38;9.35;;;;;;;22.16;51.20;100189.79;1760758;80;21428;-68
2021/09/10 03:06:16;;;;;;;12.58;9.35;;;;;;;22.16;51.17;100191.14;1708270;83;21057;-69
2021/09/10 03:08:42;;;;;;;10.95;9.65;;;;;;;22.17;51.37;100184.69;1782094;79;21144;-69
2021/09/10 03:11:10;;;;;;;11.85;9.55;;;;;;;22.18;51.01;100189.56;1761832;80;21070;-70
2021/09/10 03:13:37;;;;;;;10.20;9.20;;;;;;;22.19;51.00;100186.63;1765403;80;21095;-70
2021/09/10 03:16:04;;;;;;;11.00;9.60;;;;;;;22.19;50.88;100183.92;1773000;79;21029;-71
2021/09/10 03:18:32;;;;;;;10.85;9.68;;;;;;;22.21;50.81;100186.91;1782240;80;21070;-71
2021/09/10 03:21:02;;;;;;;11.63;8.95;;;;;;;22.21;50.67;100179.61;1769499;79;21569;-70
2021/09/10 03:23:29;;;;;;;10.28;9.20;;;;;;;22.21;50.72;100182.31;1769168;80;21050;-70
2021/09/10 03:25:57;;;;;;;11.43;8.83;;;;;;;22.22;50.55;100184.52;1781046;79;21022;-70
2021/09/10 03:28:23;;;;;;;13.13;9.20;;;;;;;22.23;50.52;100179.37;1752919;80;21053;-71
2021/09/10 03:30:51;;;;;;;11.85;10.43;;;;;;;22.22;50.40;100186.68;1760099;80;21025;-70
2021/09/10 03:33:17;;;;;;;11.12;9.33;;;;;;;22.23;50.32;100182.90;1763110;80;22281;-69
2021/09/10 03:35:44;;;;;;;12.37;9.43;;;;;;;22.23;50.39;100183.44;1751302;80;21007;-70
2021/09/10 03:38:11;;;;;;;10.80;8.93;;;;;;;22.24;50.35;100181.86;1697666;83;21618;-70
2021/09/10 03:40:37;;;;;;;12.23;9.68;;;;;;;22.24;50.60;100179.69;1746932;80;21035;-69
2021/09/10 03:43:05;;;;;;;11.28;9.43;;;;;;;22.24;50.42;100182.39;1762186;80;21078;-71
2021/09/10 03:45:32;;;;;;;11.97;10.00;;;;;;;22.24;50.33;100185.91;1753894;80;21127;-70
2021/09/10 03:47:58;;;;;;;11.88;9.98;;;;;;;22.24;50.19;100186.45;1740016;80;21015;-69
2021/09/10 03:50:25;;;;;;;10.63;9.43;;;;;;;22.24;50.21;100191.33;1749712;80;21034;-70
2021/09/10 03:52:51;;;;;;;15.30;9.65;;;;;;;22.24;50.14;100191.33;1770880;80;21078;-70
2021/09/10 03:55:19;;;;;;;12.43;8.95;;;;;;;22.24;50.09;100190.52;1752220;80;21085;-70
2021/09/10 03:57:46;;;;;;;11.70;9.63;;;;;;;22.26;50.12;100195.19;1762056;80;21149;-70
2021/09/10 04:00:13;;;;;;;13.83;9.35;;;;;;;22.26;50.11;100195.19;1757656;80;20999;-72
2021/09/10 04:02:40;;;;;;;10.35;9.23;;;;;;;22.26;50.11;100193.84;1760459;80;21039;-72
2021/09/10 04:05:09;;;;;;;11.48;9.38;;;;;;;22.25;50.03;100195.73;1750719;80;21027;-70
2021/09/10 04:07:37;;;;;;;15.43;9.35;;;;;;;22.27;50.06;100188.70;1757651;80;21151;-71
2021/09/10 04:10:06;;;;;;;48.52;43.60;;;;;;;22.27;50.04;100188.20;1754046;80;21217;-70
2021/09/10 04:12:34;;;;;;;15.98;12.03;;;;;;;22.27;49.99;100190.05;1763593;80;21011;-70
2021/09/10 04:15:01;;;;;;;13.38;10.05;;;;;;;22.28;50.00;100189.02;1764312;80;21030;-71
2021/09/10 04:17:27;;;;;;;11.57;10.30;;;;;;;22.27;49.87;100188.20;1765198;80;21525;-69
2021/09/10 04:19:55;;;;;;;12.47;10.08;;;;;;;22.29;49.79;100194.70;1722858;82;21401;-70
2021/09/10 04:22:21;;;;;;;11.15;8.83;;;;;;;22.29;49.69;100187.94;1743032;80;21141;-70
2021/09/10 04:24:49;;;;;;;13.70;9.48;;;;;;;22.30;49.61;100189.06;1705294;84;21557;-69
2021/09/10 04:27:16;;;;;;;11.15;10.00;;;;;;;22.30;49.56;100193.66;1743186;80;21125;-69
2021/09/10 04:29:43;;;;;;;12.00;9.88;;;;;;;22.31;49.54;100195.30;1739028;80;21179;-73
2021/09/10 04:32:09;;;;;;;13.48;9.93;;;;;;;22.31;49.67;100196.64;1764524;80;21085;-72
2021/09/10 04:34:36;;;;;;;11.60;9.48;;;;;;;22.32;49.55;100195.06;1706998;83;21198;-72
2021/09/10 04:37:05;;;;;;;14.80;10.38;;;;;;;22.33;49.42;100193.20;1761529;80;21573;-72
2021/09/10 04:39:33;;;;;;;12.13;9.18;;;;;;;22.32;49.47;100192.36;1762778;80;21032;-71
2021/09/10 04:41:59;;;;;;;12.90;10.30;;;;;;;22.34;49.32;100188.06;1753016;80;21630;-70
2021/09/10 04:44:26;;;;;;;14.40;9.50;;;;;;;22.35;49.21;100195.14;1732191;82;21046;-70
2021/09/10 04:46:55;;;;;;;11.57;9.28;;;;;;;22.35;49.30;100191.91;1752050;80;20994;-71
2021/09/10 04:49:21;;;;;;;13.65;9.70;;;;;;;22.36;49.34;100190.02;1760191;79;21024;-70
2021/09/10 04:51:48;;;;;;;13.68;9.50;;;;;;;22.38;49.33;100189.24;1779864;79;21608;-70
2021/09/10 04:54:16;;;;;;;12.10;9.35;;;;;;;22.41;49.37;100196.06;1760320;80;21021;-69
2021/09/10 04:56:43;;;;;;;13.60;10.03;;;;;;;22.41;49.42;100188.78;1758981;80;21014;-70
2021/09/10 04:59:10;;;;;;;10.65;9.00;;;;;;;22.43;49.43;100188.55;1783682;80;21116;-70
2021/09/10 05:01:36;;;;;;;10.70;9.48;;;;;;;22.43;49.45;100186.66;1779540;80;21486;-70
2021/09/10 05:04:04;;;;;;;12.95;10.00;;;;;;;22.45;49.47;100194.02;1771536;80;21563;-70
2021/09/10 05:06:30;;;;;;;11.40;9.35;;;;;;;22.41;49.55;100178.47;1778643;80;20995;-69
2021/09/10 05:08:57;;;;;;;10.88;9.78;;;;;;;22.47;49.52;100187.84;1776773;79;21074;-70
2021/09/10 05:11:24;;;;;;;12.73;9.85;;;;;;;22.49;49.43;100184.36;1777696;80;21168;-70
2021/09/10 05:13:50;;;;;;;13.88;10.43;;;;;;;22.51;49.49;100186.84;1760235;80;21447;-69
2021/09/10 05:16:18;;;;;;;16.45;10.30;;;;;;;22.52;49.39;100192.03;1764812;80;21073;-70
2021/09/10 05:18:46;;;;;;;14.95;10.13;;;;;;;22.55;49.20;100190.72;1751339;80;21557;-69
2021/09/10 05:21:12;;;;;;;14.38;10.53;;;;;;;22.55;49.13;100187.47;1715951;82;22102;-69
2021/09/10 05:23:38;;;;;;;12.47;10.28;;;;;;;22.57;49.43;100189.95;1755253;80;21880;-69
2021/09/10 05:26:05;;;;;;;12.78;10.50;;;;;;;22.58;49.06;100195.67;1759600;79;21073;-70
2021/09/10 05:28:32;;;;;;;12.03;10.05;;;;;;;22.59;49.10;100187.83;1781343;80;21058;-70
2021/09/10 05:30:58;;;;;;;13.10;10.03;;;;;;;22.61;49.04;100193.83;1768191;79;21491;-69
2021/09/10 05:33:25;;;;;;;13.90;10.10;;;;;;;22.62;49.23;100192.78;1761286;80;21094;-70
2021/09/10 05:35:51;;;;;;;11.08;9.40;;;;;;;22.64;49.33;100192.52;1770076;80;21114;-71
2021/09/10 05:38:22;;;;;;;13.75;9.30;;;;;;;22.66;49.32;100198.55;1756890;80;22400;-69
2021/09/10 05:40:50;;;;;;;13.38;10.80;;;;;;;22.67;49.08;100198.83;1713514;79;21082;-69
2021/09/10 05:43:17;;;;;;;12.55;10.65;;;;;;;22.68;49.28;100194.54;1774058;79;21494;-68
2021/09/10 05:45:43;;;;;;;14.18;10.55;;;;;;;22.69;49.30;100195.35;1765476;80;21041;-69
2021/09/10 05:48:11;;;;;;;12.07;9.93;;;;;;;22.72;49.28;100203.02;1760421;80;21035;-67
2021/09/10 05:50:38;;;;;;;16.97;10.82;;;;;;;22.73;49.28;100197.88;1770533;80;21117;-67
2021/09/10 05:53:06;;;;;;;13.72;9.80;;;;;;;22.76;49.51;100200.13;1774025;80;21069;-70
2021/09/10 05:55:32;;;;;;;14.10;10.25;;;;;;;22.77;49.26;100202.60;1763814;80;21018;-70
2021/09/10 05:57:59;;;;;;;14.00;10.50;;;;;;;22.79;49.00;100199.63;1771217;79;21076;-70
2021/09/10 06:00:26;;;;;;;15.50;10.88;;;;;;;22.81;49.31;100204.28;1777103;80;21160;-70
2021/09/10 06:02:53;;;;;;;13.78;10.48;;;;;;;22.84;49.33;100197.58;1771972;80;21042;-71
2021/09/10 06:05:19;;;;;;;11.90;10.13;;;;;;;22.85;49.55;100200.06;1772935;80;21248;-71
2021/09/10 06:07:45;;;;;;;18.80;10.65;;;;;;;22.86;49.29;100200.34;1772879;80;21034;-69
2021/09/10 06:10:14;;;;;;;14.03;10.78;;;;;;;22.90;49.15;100206.11;1775206;80;21082;-70
2021/09/10 06:12:42;;;;;;;12.68;10.85;;;;;;;22.90;49.21;100205.56;1772455;80;21483;-70
2021/09/10 06:15:11;;;;;;;12.00;10.70;;;;;;;22.92;49.35;100210.21;1773416;79;21560;-71
2021/09/10 06:17:37;;;;;;;14.18;10.50;;;;;;;22.95;49.05;100210.29;1776709;80;21045;-69
2021/09/10 06:20:05;;;;;;;15.80;11.20;;;;;;;22.95;49.56;100208.39;1749703;80;21066;-71
2021/09/10 06:22:33;;;;;;;15.83;11.10;;;;;;;22.97;49.71;100213.05;1774850;80;21070;-73
2021/09/10 06:25:02;;;;;;;15.05;10.85;;;;;;;23.00;50.22;100214.44;1780086;80;21093;-72
2021/09/10 06:27:29;;;;;;;15.25;10.72;;;;;;;23.02;50.45;100214.20;1765153;80;21049;-71
2021/09/10 06:29:57;;;;;;;13.38;11.15;;;;;;;23.04;50.43;100212.11;1757003;80;21073;-71
2021/09/10 06:32:26;;;;;;;15.48;10.63;;;;;;;23.05;50.66;100213.77;1779602;79;21037;-71
2021/09/10 06:34:52;;;;;;;15.88;10.48;;;;;;;23.08;50.83;100218.19;1771168;79;21530;-69
2021/09/10 06:37:20;;;;;;;14.87;10.95;;;;;;;23.10;50.66;100224.70;1764042;80;22035;-68
2021/09/10 06:39:47;;;;;;;15.93;10.65;;;;;;;23.12;50.57;100227.48;1764452;80;21038;-69
2021/09/10 06:42:14;;;;;;;13.08;10.55;;;;;;;23.08;50.47;100209.21;1765364;80;21596;-69
2021/09/10 06:44:41;;;;;;;14.38;9.85;;;;;;;23.16;50.54;100223.23;1760916;80;21549;-70
2021/09/10 06:47:07;;;;;;;13.90;9.65;;;;;;;23.19;50.41;100219.20;1759043;80;21038;-73
2021/09/10 06:49:33;;;;;;;15.18;10.85;;;;;;;23.20;50.87;100222.73;1760649;79;21762;-72
2021/09/10 06:52:00;;;;;;;15.45;11.10;;;;;;;23.20;50.88;100223.58;1767120;80;21486;-68
2021/09/10 06:54:26;;;;;;;12.15;10.43;;;;;;;23.21;51.30;100221.69;1769248;80;21071;-69
2021/09/10 06:56:53;;;;;;;13.78;10.30;;;;;;;23.23;51.11;100225.78;1757368;80;21035;-70
2021/09/10 06:59:20;;;;;;;14.65;9.95;;;;;;;23.25;51.06;100227.73;1765500;80;21054;-70
2021/09/10 07:01:47;;;;;;;13.75;9.70;;;;;;;23.28;51.29;100223.73;1759926;80;21214;-68
2021/09/10 07:04:14;;;;;;;13.53;10.08;;;;;;;23.31;51.26;100232.72;1750100;80;21046;-72
2021/09/10 07:06:40;;;;;;;13.30;10.75;;;;;;;23.34;51.22;100233.06;1760946;80;20993;-75
2021/09/10 07:09:07;;;;;;;13.75;10.00;;;;;;;23.37;51.46;100234.46;1768277;80;22251;-75
2021/09/10 07:11:35;;;;;;;19.48;10.65;;;;;;;23.40;50.85;100234.53;1752335;80;21153;-77
2021/09/10 07:14:02;;;;;;;18.82;10.55;;;;;;;23.44;51.44;100232.44;1761936;80;21149;-76
2021/09/10 07:16:31;;;;;;;16.05;10.00;;;;;;;23.48;51.27;100236.86;1761475;80;21029;-80
2021/09/10 07:18:59;;;;;;;15.68;10.35;;;;;;;23.52;51.78;100233.95;1763573;80;21061;-76
2021/09/10 07:21:26;;;;;;;11.15;9.80;;;;;;;23.54;51.85;100232.63;1753960;80;21024;-73
2021/09/10 07:23:53;;;;;;;14.35;9.65;;;;;;;23.57;51.59;100228.63;1766773;80;21558;-77
2021/09/10 07:26:20;;;;;;;12.07;10.30;;;;;;;23.60;50.85;100237.63;1747491;80;21111;-75
2021/09/10 07:28:47;;;;;;;15.10;10.35;;;;;;;23.63;50.94;100231.73;1716059;82;21050;-75
2021/09/10 07:31:14;;;;;;;17.67;10.28;;;;;;;23.67;50.71;100235.59;1762955;80;21014;-73
2021/09/10 07:33:42;;;;;;;17.48;10.03;;;;;;;23.70;50.59;100234.28;1761664;80;21530;-74
2021/09/10 07:36:08;;;;;;;15.88;10.80;;;;;;;23.73;50.35;100233.27;1741490;81;21066;-74
2021/09/10 07:38:35;;;;;;;16.77;9.63;;;;;;;23.77;50.44;100232.79;1739912;82;21790;-72
2021/09/10 07:41:03;;;;;;;14.00;10.08;;;;;;;23.79;50.05;100230.69;1744568;82;21022;-73
2021/09/10 07:43:31;;;;;;;16.20;10.18;;;;;;;23.82;49.61;100238.34;1730965;82;21628;-76
2021/09/10 07:45:57;;;;;;;12.88;9.50;;;;;;;23.84;49.26;100234.31;1736787;82;21042;-72
2021/09/10 07:48:24;;;;;;;13.55;9.45;;;;;;;23.87;49.41;100239.23;1736890;82;21018;-72
2021/09/10 07:50:50;;;;;;;12.88;9.63;;;;;;;23.90;49.32;100229.27;1742771;82;21511;-72
2021/09/10 07:53:17;;;;;;;12.18;9.48;;;;;;;23.92;49.35;100233.09;1730290;81;21680;-72
2021/09/10 07:55:43;;;;;;;15.58;10.20;;;;;;;23.94;49.00;100231.77;1735388;80;21537;-72
2021/09/10 07:58:10;;;;;;;18.80;9.68;;;;;;;23.97;49.01;100224.21;1736854;82;21141;-72
2021/09/10 08:00:38;;;;;;;17.32;9.80;;;;;;;24.00;48.83;100228.62;1734237;80;21029;-72
2021/09/10 08:03:05;;;;;;;15.13;9.65;;;;;;;24.04;48.54;100220.27;1737245;81;21195;-74
2021/09/10 08:05:32;;;;;;;26.20;10.35;;;;;;;24.07;48.86;100221.15;1693738;82;21039;-76
2021/09/10 08:07:59;;;;;;;15.23;9.10;;;;;;;24.13;49.04;100224.77;1741085;82;21053;-75
2021/09/10 08:10:26;;;;;;;13.43;9.65;;;;;;;24.16;48.10;100220.73;1739151;82;21026;-72
2021/09/10 08:12:54;;;;;;;17.20;9.10;;;;;;;24.19;48.15;100215.64;1722458;82;21081;-72
2021/09/10 08:15:22;;;;;;;14.20;9.45;;;;;;;24.23;48.53;100218.69;1743654;80;21046;-71
2021/09/10 08:17:48;;;;;;;12.37;9.75;;;;;;;24.26;48.45;100219.02;1737068;80;21023;-71
2021/09/10 08:20:15;;;;;;;14.45;9.80;;;;;;;24.30;47.97;100224.78;1726665;82;21122;-68
2021/09/10 08:22:43;;;;;;;14.53;9.78;;;;;;;24.31;46.43;100219.63;1698462;82;21044;-70
2021/09/10 08:25:12;;;;;;;11.55;9.38;;;;;;;24.33;46.15;100216.13;1712285;82;21072;-70
2021/09/10 08:27:38;;;;;;;27.73;10.88;;;;;;;24.33;45.95;100210.16;1707433;82;21107;-71
2021/09/10 08:30:08;;;;;;;50.65;12.60;;;;;;;24.37;46.25;100210.48;1750703;81;21545;-69
2021/09/10 08:32:35;;;;;;;14.68;8.88;;;;;;;24.39;46.15;100215.12;1727057;82;21038;-70
2021/09/10 08:35:02;;;;;;;12.18;8.80;;;;;;;24.42;44.45;100207.86;1747325;80;21098;-69
2021/09/10 08:37:28;;;;;;;9.33;7.72;;;;;;;24.43;44.03;100208.12;1757165;80;20998;-69
2021/09/10 08:39:55;;;;;;;10.35;7.33;;;;;;;24.46;43.71;100211.72;1768540;80;21139;-72
2021/09/10 08:42:23;;;;;;;11.78;7.95;;;;;;;24.49;42.98;100204.95;1766221;80;21593;-71
2021/09/10 08:44:49;;;;;;;13.95;7.85;;;;;;;24.50;43.03;100202.00;1776394;80;21057;-74
2021/09/10 08:47:16;;;;;;;12.78;8.63;;;;;;;24.51;42.74;100205.05;1779012;80;21108;-71
2021/09/10 08:49:45;;;;;;;12.18;7.97;;;;;;;24.48;41.38;100194.64;1775773;79;21108;-73
2021/09/10 08:52:10;;;;;;;11.60;8.43;;;;;;;24.56;40.68;100200.75;1778852;80;21149;-71
2021/09/10 08:54:38;;;;;;;13.03;8.13;;;;;;;24.56;41.37;100191.25;1770668;80;21438;-72
2021/09/10 08:57:05;;;;;;;13.20;8.73;;;;;;;24.59;41.95;100189.37;1767238;80;21035;-71
2021/09/10 08:59:32;;;;;;;11.85;8.88;;;;;;;24.61;42.32;100194.02;1766206;80;21062;-72
2021/09/10 09:01:59;;;;;;;9.25;6.90;;;;;;;24.63;42.52;100188.64;1765597;80;20998;-72
2021/09/10 09:04:37;;;;;;;9.10;8.18;;;;;;;24.67;41.46;100188.97;1769366;80;21038;-72
2021/09/10 09:07:08;;;;;;;11.43;8.10;;;;;;;24.69;41.05;100184.11;1754232;80;21013;-75
2021/09/10 09:09:47;;;;;;;9.10;7.50;;;;;;;24.72;41.08;100177.64;1759781;80;21034;-75
2021/09/10 09:12:21;;;;;;;8.83;7.25;;;;;;;24.75;41.62;100172.77;1760476;80;21060;-78
2021/09/10 09:14:56;;;;;;;10.88;6.72;;;;;;;24.78;41.60;100174.97;1781322;79;21116;-83
2021/09/10 09:17:30;;;;;;;10.23;6.70;;;;;;;24.82;40.40;100173.39;1769433;80;21513;-76
2021/09/10 09:20:19;;;;;;;7.35;5.80;;;;;;;24.83;38.76;100170.42;1708328;83;21082;-78
2021/09/10 09:23:14;;;;;;;9.50;5.58;;;;;;;24.85;38.42;100171.54;1776147;79;21529;-77
2021/09/10 09:25:48;;;;;;;8.43;5.03;;;;;;;24.86;38.39;100172.65;1777072;80;21037;-75
2021/09/10 09:28:29;;;;;;;11.75;5.90;;;;;;;24.89;37.91;100176.20;1768932;80;21050;-74
2021/09/10 09:31:01;;;;;;;8.38;6.30;;;;;;;24.96;38.79;100172.50;1764968;80;21142;-76
2021/09/10 09:33:32;;;;;;;6.90;6.20;;;;;;;25.03;39.51;100175.83;1775377;80;21093;-76
2021/09/10 09:36:06;;;;;;;8.40;6.30;;;;;;;25.09;39.05;100174.81;1728876;82;21177;-81
2021/09/10 09:38:34;;;;;;;7.30;5.85;;;;;;;25.12;38.38;100171.05;1695249;84;21031;-76
2021/09/10 09:41:08;;;;;;;10.63;6.92;;;;;;;25.18;37.60;100177.91;1757735;81;21085;-80
2021/09/10 09:43:40;;;;;;;9.40;6.58;;;;;;;25.19;37.24;100169.52;1717089;81;21173;-79
2021/09/10 09:46:13;;;;;;;10.15;6.62;;;;;;;25.22;37.30;100168.17;1763854;81;21529;-79
2021/09/10 09:48:43;;;;;;;10.45;6.45;;;;;;;25.25;37.68;100162.27;1755446;81;21008;-73
2021/09/10 09:51:10;;;;;;;11.53;6.30;;;;;;;25.29;37.80;100155.23;1731254;81;21081;-74
2021/09/10 09:53:38;;;;;;;8.93;6.80;;;;;;;25.33;37.52;100156.37;1731236;79;21631;-78
2021/09/10 09:56:08;;;;;;;11.48;6.12;;;;;;;25.38;37.45;100161.02;1739214;81;21988;-74
2021/09/10 09:58:36;;;;;;;9.18;6.37;;;;;;;25.41;36.88;100158.63;1760093;81;21034;-73
2021/09/10 10:01:05;;;;;;;9.75;7.05;;;;;;;25.47;37.73;100166.30;1761885;81;21595;-77
2021/09/10 10:03:33;;;;;;;9.48;7.10;;;;;;;25.50;38.35;100154.37;1754561;80;21120;-78
2021/09/10 10:06:05;;;;;;;10.32;6.80;;;;;;;25.54;38.07;100152.50;1750443;80;21073;-80
2021/09/10 10:08:59;;;;;;;10.35;6.50;;;;;;;25.59;37.65;100156.61;1753238;81;21146;-80
2021/09/10 10:11:31;;;;;;;6.92;5.80;;;;;;;25.63;38.32;100149.58;1729538;81;21098;-82
2021/09/10 10:14:02;;;;;;;11.28;6.70;;;;;;;25.66;39.11;100145.80;1756071;81;21167;-81
2021/09/10 10:16:46;;;;;;;8.70;6.17;;;;;;;25.70;39.60;100144.20;1758974;81;21065;-81
2021/09/10 10:19:25;;;;;;;8.95;7.12;;;;;;;25.74;39.21;100141.79;1759661;81;21078;-80
2021/09/10 10:22:02;;;;;;;9.68;6.95;;;;;;;25.78;39.75;100140.73;1751526;81;21075;-77
2021/09/10 10:24:52;;;;;;;9.33;6.97;;;;;;;25.80;39.42;100144.02;1746677;81;22327;-75
2021/09/10 10:27:40;;;;;;;11.60;6.62;;;;;;;25.85;37.70;100139.98;1745879;81;21038;-76
2021/09/10 10:30:18;;;;;;;9.70;6.55;;;;;;;25.90;36.98;100133.20;1760713;81;21065;-79
2021/09/10 10:32:50;;;;;;;7.30;6.35;;;;;;;25.97;37.57;100138.48;1752606;81;21061;-79
2021/09/10 10:35:30;;;;;;;8.48;6.53;;;;;;;26.02;37.21;100135.77;1766398;81;21180;-80
2021/09/10 10:38:05;;;;;;;9.60;6.25;;;;;;;26.05;37.60;100129.82;1759342;80;21065;-76
2021/09/10 10:40:47;;;;;;;11.55;6.78;;;;;;;26.09;37.72;100127.66;1771188;79;21060;-76
2021/09/10 10:43:24;;;;;;;11.68;6.17;;;;;;;26.13;37.55;100116.27;1774113;80;21068;-81
2021/09/10 10:46:05;;;;;;;9.55;6.30;;;;;;;26.16;37.33;100114.39;1773123;80;21002;-80
2021/09/10 10:48:43;;;;;;;10.00;6.85;;;;;;;26.21;37.87;100114.40;1772734;79;21484;-81
2021/09/10 10:51:20;;;;;;;7.55;6.45;;;;;;;26.24;38.52;100111.16;1761945;80;21030;-80
2021/09/10 10:53:55;;;;;;;7.78;6.87;;;;;;;26.27;36.91;100113.38;1769108;79;21054;-77
2021/09/10 10:56:33;;;;;;;11.12;7.42;;;;;;;26.35;36.18;100122.41;1752819;80;21081;-74
2021/09/10 10:59:19;;;;;;;7.08;6.37;;;;;;;26.41;36.01;100119.17;1752959;80;21031;-76
2021/09/10 11:02:25;;;;;;;8.65;5.78;;;;;;;26.45;36.96;100108.83;1774780;80;21549;-77
2021/09/10 11:05:13;;;;;;;12.73;5.60;;;;;;;26.48;37.67;100105.59;1771172;79;21042;-77
2021/09/10 11:07:42;;;;;;;6.90;5.72;;;;;;;26.49;38.25;100099.04;1770367;80;21022;-77
2021/09/10 11:10:15;;;;;;;10.65;6.00;;;;;;;26.52;38.59;100103.16;1778275;80;21065;-71
2021/09/10 11:12:47;;;;;;;7.97;6.42;;;;;;;26.54;38.86;100099.62;1780115;80;21045;-72
2021/09/10 11:15:24;;;;;;;8.63;6.73;;;;;;;26.56;39.03;100100.70;1764416;80;21260;-74
2021/09/10 11:17:56;;;;;;;9.78;6.55;;;;;;;26.58;37.72;100093.92;1756765;80;21039;-74
2021/09/10 11:20:36;;;;;;;11.88;7.12;;;;;;;26.62;37.24;100096.97;1770614;80;21309;-74
2021/09/10 11:23:10;;;;;;;12.10;6.87;;;;;;;26.65;38.18;100095.86;1745002;79;21027;-74